createdAt,value
2023-05-05T00:00:28.406Z,9.86
2023-05-05T00:01:50.918Z,9.87
2023-05-05T00:02:57.185Z,9.88
2023-05-05T00:04:04.256Z,9.89
2023-05-05T00:05:11.800Z,9.91
2023-05-05T00:06:19.078Z,9.93
2023-05-05T00:07:25.437Z,9.93
2023-05-05T00:08:32.180Z,9.94
2023-05-05T00:09:37.975Z,9.95
2023-05-05T00:10:45.023Z,9.95
2023-05-05T00:11:51.163Z,9.97
2023-05-05T00:12:58.235Z,9.98
2023-05-05T00:14:04.045Z,9.97
2023-05-05T00:15:12.119Z,9.99
2023-05-05T00:16:18.004Z,9.99
2023-05-05T00:17:24.098Z,10.01
2023-05-05T00:18:32.106Z,10.03
2023-05-05T00:19:37.996Z,10.02
2023-05-05T00:20:43.912Z,10.02
2023-05-05T00:21:49.700Z,10.01
2023-05-05T00:22:55.722Z,9.98
2023-05-05T00:24:02.191Z,9.98
2023-05-05T00:25:10.083Z,9.99
2023-05-05T00:26:16.565Z,9.98
2023-05-05T00:27:22.452Z,10.00
2023-05-05T00:28:29.090Z,10.01
2023-05-05T00:29:34.957Z,10.02
2023-05-05T00:30:42.731Z,10.01
2023-05-05T00:31:50.264Z,9.99
2023-05-05T00:32:57.442Z,9.97
2023-05-05T00:34:03.364Z,9.96
2023-05-05T00:35:10.493Z,9.95
2023-05-05T00:36:16.934Z,9.95
2023-05-05T00:37:23.226Z,9.94
2023-05-05T00:38:29.621Z,9.93
2023-05-05T00:39:35.666Z,9.92
2023-05-05T00:40:41.791Z,9.93
2023-05-05T00:41:48.358Z,9.94
2023-05-05T00:42:54.656Z,9.95
2023-05-05T00:44:00.832Z,9.96
2023-05-05T00:45:09.092Z,9.96
2023-05-05T00:46:24.327Z,9.98
2023-05-05T00:47:31.360Z,9.99
2023-05-05T00:48:37.496Z,9.99
2023-05-05T00:49:44.597Z,9.97
2023-05-05T00:50:50.491Z,9.96
2023-05-05T00:51:56.519Z,9.95
2023-05-05T00:53:04.416Z,9.95
2023-05-05T00:54:11.090Z,9.96
2023-05-05T00:55:17.446Z,9.97
2023-05-05T00:56:27.458Z,9.96
2023-05-05T00:57:36.389Z,9.95
2023-05-05T00:58:44.084Z,9.96
2023-05-05T00:59:53.290Z,9.94
2023-05-05T01:00:59.137Z,9.92
2023-05-05T01:02:05.568Z,9.92
2023-05-05T01:03:15.457Z,9.89
2023-05-05T01:04:22.306Z,9.86
2023-05-05T01:05:34.148Z,9.84
2023-05-05T01:06:48.811Z,9.81
2023-05-05T01:08:15.604Z,9.81
2023-05-05T01:09:35.153Z,9.81
2023-05-05T01:10:47.126Z,9.81
2023-05-05T01:12:01.053Z,9.82
2023-05-05T01:13:20.600Z,9.84
2023-05-05T01:14:37.712Z,9.85
2023-05-05T01:15:50.731Z,9.85
2023-05-05T01:17:00.284Z,9.83
2023-05-05T01:18:16.873Z,9.82
2023-05-05T01:19:51.058Z,9.81
2023-05-05T01:21:03.738Z,9.80
2023-05-05T01:22:12.190Z,9.80
2023-05-05T01:23:37.384Z,9.80
2023-05-05T01:25:12.586Z,9.79
2023-05-05T01:26:49.147Z,9.79
2023-05-05T01:28:16.049Z,9.77
2023-05-05T01:29:56.954Z,9.74
2023-05-05T01:31:24.070Z,9.75
2023-05-05T01:32:35.034Z,9.73
2023-05-05T01:33:45.857Z,9.72
2023-05-05T01:34:58.526Z,9.72
2023-05-05T01:36:10.726Z,9.73
2023-05-05T01:37:23.097Z,9.74
2023-05-05T01:38:37.113Z,9.73
2023-05-05T01:39:46.638Z,9.73
2023-05-05T01:41:00.576Z,9.75
2023-05-05T01:42:15.214Z,9.76
2023-05-05T01:43:23.433Z,9.75
2023-05-05T01:44:31.458Z,9.73
2023-05-05T01:45:41.725Z,9.72
2023-05-05T01:46:49.541Z,9.69
2023-05-05T01:47:59.048Z,9.67
2023-05-05T01:49:04.786Z,9.65
2023-05-05T01:50:15.040Z,9.63
2023-05-05T01:51:23.536Z,9.64
2023-05-05T01:52:30.012Z,9.65
2023-05-05T01:53:39.273Z,9.67
2023-05-05T01:54:47.962Z,9.69
2023-05-05T01:55:57.864Z,9.70
2023-05-05T01:57:06.349Z,9.72
2023-05-05T01:58:14.866Z,9.73
2023-05-05T01:59:23.430Z,9.74
2023-05-05T02:00:30.531Z,9.75
2023-05-05T02:01:41.532Z,9.77
2023-05-05T02:02:50.260Z,9.78
2023-05-05T02:03:59.132Z,9.78
2023-05-05T02:05:08.955Z,9.79
2023-05-05T02:06:18.491Z,9.82
2023-05-05T02:07:27.001Z,9.84
2023-05-05T02:08:34.953Z,9.84
2023-05-05T02:09:43.908Z,9.85
2023-05-05T02:10:53.852Z,9.86
2023-05-05T02:12:04.833Z,9.87
2023-05-05T02:13:13.399Z,9.86
2023-05-05T02:14:21.026Z,9.85
2023-05-05T02:15:27.946Z,9.82
2023-05-05T02:16:37.456Z,9.82
2023-05-05T02:17:46.171Z,9.80
2023-05-05T02:18:53.948Z,9.80
2023-05-05T02:20:02.201Z,9.80
2023-05-05T02:21:11.411Z,9.80
2023-05-05T02:22:18.265Z,9.82
2023-05-05T02:23:24.470Z,9.82
2023-05-05T02:24:31.949Z,9.82
2023-05-05T02:25:47.750Z,9.83
2023-05-05T02:26:57.291Z,9.83
2023-05-05T02:28:05.361Z,9.82
2023-05-05T02:29:15.265Z,9.81
2023-05-05T02:30:24.012Z,9.80
2023-05-05T02:31:31.547Z,9.79
2023-05-05T02:32:41.621Z,9.80
2023-05-05T02:33:51.487Z,9.81
2023-05-05T02:35:01.767Z,9.81
2023-05-05T02:36:16.829Z,9.82
2023-05-05T02:37:27.385Z,9.83
2023-05-05T02:38:37.781Z,9.83
2023-05-05T02:39:51.666Z,9.85
2023-05-05T02:41:01.745Z,9.86
2023-05-05T02:42:16.527Z,9.87
2023-05-05T02:43:26.095Z,9.88
2023-05-05T02:44:34.767Z,9.89
2023-05-05T02:45:41.947Z,9.89
2023-05-05T02:46:49.238Z,9.89
2023-05-05T02:47:56.128Z,9.89
2023-05-05T02:49:02.484Z,9.87
2023-05-05T02:50:11.496Z,9.87
2023-05-05T02:51:17.723Z,9.85
2023-05-05T02:52:24.578Z,9.85
2023-05-05T02:53:31.596Z,9.85
2023-05-05T02:54:37.917Z,9.83
2023-05-05T02:55:50.676Z,9.83
2023-05-05T02:56:59.631Z,9.81
2023-05-05T02:58:14.590Z,9.80
2023-05-05T02:59:29.888Z,9.79
2023-05-05T03:00:37.199Z,9.76
2023-05-05T03:01:54.139Z,9.75
2023-05-05T03:03:14.291Z,9.78
2023-05-05T03:04:28.032Z,9.81
2023-05-05T03:05:46.069Z,9.83
2023-05-05T03:06:57.544Z,9.85
2023-05-05T03:08:09.889Z,9.86
2023-05-05T03:09:21.833Z,9.87
2023-05-05T03:10:34.242Z,9.87
2023-05-05T03:11:45.258Z,9.87
2023-05-05T03:12:55.424Z,9.86
2023-05-05T03:14:09.193Z,9.84
2023-05-05T03:15:17.199Z,9.82
2023-05-05T03:16:26.915Z,9.82
2023-05-05T03:17:35.307Z,9.83
2023-05-05T03:18:42.604Z,9.83
2023-05-05T03:19:50.485Z,9.84
2023-05-05T03:20:57.276Z,9.84
2023-05-05T03:22:05.041Z,9.83
2023-05-05T03:23:13.552Z,9.82
2023-05-05T03:24:21.989Z,9.83
2023-05-05T03:25:46.392Z,9.82
2023-05-05T03:26:53.532Z,9.82
2023-05-05T03:27:59.760Z,9.82
2023-05-05T03:29:07.155Z,9.84
2023-05-05T03:30:16.669Z,9.85
2023-05-05T03:31:22.787Z,9.87
2023-05-05T03:32:31.306Z,9.88
2023-05-05T03:33:38.193Z,9.89
2023-05-05T03:34:44.443Z,9.89
2023-05-05T03:35:50.900Z,9.90
2023-05-05T03:36:59.410Z,9.90
2023-05-05T03:38:05.813Z,9.90
2023-05-05T03:39:12.058Z,9.91
2023-05-05T03:40:18.181Z,9.91
2023-05-05T03:41:25.105Z,9.91
2023-05-05T03:42:30.861Z,9.92
2023-05-05T03:43:37.383Z,9.95
2023-05-05T03:44:43.512Z,9.96
2023-05-05T03:45:51.037Z,9.98
2023-05-05T03:46:56.863Z,10.00
2023-05-05T03:48:02.664Z,10.00
2023-05-05T03:49:09.962Z,9.99
2023-05-05T03:50:17.233Z,9.98
2023-05-05T03:51:23.938Z,9.98
2023-05-05T03:52:30.571Z,9.99
2023-05-05T03:53:37.073Z,9.99
2023-05-05T03:54:43.476Z,10.00
2023-05-05T03:55:50.497Z,10.02
2023-05-05T03:56:56.810Z,10.05
2023-05-05T03:58:03.202Z,10.08
2023-05-05T03:59:10.980Z,10.10
2023-05-05T04:00:19.762Z,10.11
2023-05-05T04:01:25.939Z,10.12
2023-05-05T04:02:33.607Z,10.14
2023-05-05T04:03:40.300Z,10.15
2023-05-05T04:04:46.459Z,10.16
2023-05-05T04:05:52.750Z,10.17
2023-05-05T04:06:58.984Z,10.19
2023-05-05T04:08:06.295Z,10.22
2023-05-05T04:09:12.763Z,10.25
2023-05-05T04:10:18.909Z,10.28
2023-05-05T04:11:24.750Z,10.32
2023-05-05T04:12:30.724Z,10.35
2023-05-05T04:13:36.890Z,10.38
2023-05-05T04:14:42.634Z,10.41
2023-05-05T04:15:48.599Z,10.43
2023-05-05T04:16:54.764Z,10.44
2023-05-05T04:18:01.266Z,10.44
2023-05-05T04:19:07.187Z,10.44
2023-05-05T04:20:14.102Z,10.43
2023-05-05T04:21:20.215Z,10.42
2023-05-05T04:22:26.318Z,10.46
2023-05-05T04:23:32.311Z,10.49
2023-05-05T04:24:38.351Z,10.51
2023-05-05T04:25:44.502Z,10.52
2023-05-05T04:26:50.935Z,10.54
2023-05-05T04:27:57.031Z,10.53
2023-05-05T04:29:03.851Z,10.55
2023-05-05T04:30:12.311Z,10.57
2023-05-05T04:31:18.286Z,10.59
2023-05-05T04:32:25.708Z,10.60
2023-05-05T04:33:31.634Z,10.62
2023-05-05T04:34:38.010Z,10.63
2023-05-05T04:35:44.673Z,10.65
2023-05-05T04:36:50.733Z,10.64
2023-05-05T04:37:56.894Z,10.64
2023-05-05T04:39:03.439Z,10.65
2023-05-05T04:40:12.098Z,10.65
2023-05-05T04:41:17.890Z,10.67
2023-05-05T04:42:23.669Z,10.68
2023-05-05T04:43:30.001Z,10.68
2023-05-05T04:44:36.863Z,10.67
2023-05-05T04:45:51.722Z,10.65
2023-05-05T04:46:58.479Z,10.63
2023-05-05T04:48:06.279Z,10.60
2023-05-05T04:49:12.410Z,10.58
2023-05-05T04:50:19.014Z,10.58
2023-05-05T04:51:26.458Z,10.59
2023-05-05T04:52:32.809Z,10.58
2023-05-05T04:53:40.698Z,10.60
2023-05-05T04:54:46.959Z,10.62
2023-05-05T04:55:53.522Z,10.64
2023-05-05T04:56:59.506Z,10.66
2023-05-05T04:58:05.918Z,10.69
2023-05-05T04:59:11.693Z,10.72
2023-05-05T05:00:19.759Z,10.76
2023-05-05T05:01:25.828Z,10.77
2023-05-05T05:02:32.234Z,10.79
2023-05-05T05:03:38.430Z,10.81
2023-05-05T05:04:44.536Z,10.84
2023-05-05T05:05:51.434Z,10.88
2023-05-05T05:06:59.372Z,10.92
2023-05-05T05:08:07.009Z,10.95
2023-05-05T05:09:14.083Z,10.99
2023-05-05T05:10:21.053Z,11.04
2023-05-05T05:11:27.835Z,11.10
2023-05-05T05:12:34.208Z,11.12
2023-05-05T05:13:41.948Z,11.16
2023-05-05T05:14:47.920Z,11.22
2023-05-05T05:15:54.082Z,11.28
2023-05-05T05:16:59.923Z,11.34
2023-05-05T05:18:06.193Z,11.39
2023-05-05T05:19:12.538Z,11.43
2023-05-05T05:20:19.193Z,11.45
2023-05-05T05:21:26.269Z,11.49
2023-05-05T05:22:32.830Z,11.52
2023-05-05T05:23:39.183Z,11.55
2023-05-05T05:24:45.014Z,11.59
2023-05-05T05:25:52.299Z,11.63
2023-05-05T05:26:58.909Z,11.64
2023-05-05T05:28:09.508Z,11.63
2023-05-05T05:29:16.917Z,11.61
2023-05-05T05:30:23.274Z,11.61
2023-05-05T05:31:29.295Z,11.60
2023-05-05T05:32:35.806Z,11.60
2023-05-05T05:33:42.564Z,11.62
2023-05-05T05:34:48.886Z,11.62
2023-05-05T05:35:54.615Z,11.63
2023-05-05T05:37:01.390Z,11.63
2023-05-05T05:38:08.282Z,11.62
2023-05-05T05:39:14.935Z,11.63
2023-05-05T05:40:21.360Z,11.65
2023-05-05T05:41:27.414Z,11.67
2023-05-05T05:42:33.291Z,11.69
2023-05-05T05:43:39.680Z,11.68
2023-05-05T05:44:46.428Z,11.67
2023-05-05T05:45:53.140Z,11.69
2023-05-05T05:46:59.243Z,11.69
2023-05-05T05:48:07.097Z,11.72
2023-05-05T05:49:13.524Z,11.76
2023-05-05T05:50:20.409Z,11.80
2023-05-05T05:51:27.021Z,11.85
2023-05-05T05:52:34.873Z,11.91
2023-05-05T05:53:41.374Z,11.95
2023-05-05T05:54:48.841Z,11.98
2023-05-05T05:55:54.703Z,12.02
2023-05-05T05:57:00.884Z,12.06
2023-05-05T05:58:07.582Z,12.09
2023-05-05T05:59:13.479Z,12.10
2023-05-05T06:00:21.769Z,12.12
2023-05-05T06:01:27.889Z,12.12
2023-05-05T06:02:35.243Z,12.14
2023-05-05T06:03:41.774Z,12.16
2023-05-05T06:04:48.996Z,12.19
2023-05-05T06:05:55.192Z,12.25
2023-05-05T06:07:01.378Z,12.33
2023-05-05T06:08:07.827Z,12.39
2023-05-05T06:09:14.571Z,12.45
2023-05-05T06:11:31.847Z,12.52
2023-05-05T06:12:39.233Z,12.58
2023-05-05T06:13:46.458Z,12.62
2023-05-05T06:14:52.505Z,12.67
2023-05-05T06:16:03.437Z,12.74
2023-05-05T06:17:10.138Z,12.81
2023-05-05T06:18:16.090Z,12.86
2023-05-05T06:19:22.889Z,12.93
2023-05-05T06:20:29.221Z,13.00
2023-05-05T06:21:35.981Z,13.02
2023-05-05T06:22:42.425Z,13.06
2023-05-05T06:23:48.655Z,13.10
2023-05-05T06:24:54.870Z,13.11
2023-05-05T06:26:00.635Z,13.09
2023-05-05T06:27:06.649Z,13.10
2023-05-05T06:28:12.379Z,13.14
2023-05-05T06:29:18.638Z,13.17
2023-05-05T06:30:26.322Z,13.19
2023-05-05T06:31:34.350Z,13.22
2023-05-05T06:32:40.446Z,13.27
2023-05-05T06:33:46.827Z,13.30
2023-05-05T06:34:52.767Z,13.34
2023-05-05T06:35:58.688Z,13.36
2023-05-05T06:37:05.144Z,13.41
2023-05-05T06:38:13.205Z,13.51
2023-05-05T06:39:19.528Z,13.63
2023-05-05T06:40:25.978Z,13.73
2023-05-05T06:41:32.189Z,13.80
2023-05-05T06:42:37.945Z,13.91
2023-05-05T06:43:45.217Z,14.03
2023-05-05T06:44:52.128Z,14.16
2023-05-05T06:45:58.787Z,14.29
2023-05-05T06:47:06.044Z,14.39
2023-05-05T06:48:12.850Z,14.43
2023-05-05T06:49:19.621Z,14.50
2023-05-05T06:50:25.865Z,14.61
2023-05-05T06:51:32.043Z,14.65
2023-05-05T06:52:38.476Z,14.71
2023-05-05T06:53:45.010Z,14.81
2023-05-05T06:54:50.810Z,14.91
2023-05-05T06:55:56.979Z,15.05
2023-05-05T06:57:01.987Z,15.18
2023-05-05T06:58:06.919Z,15.29
2023-05-05T06:59:12.025Z,15.39
2023-05-05T07:00:18.797Z,15.48
2023-05-05T07:01:23.769Z,15.54
2023-05-05T07:02:29.798Z,15.54
2023-05-05T07:03:34.323Z,15.53
2023-05-05T07:04:39.601Z,15.55
2023-05-05T07:05:44.109Z,15.57
2023-05-05T07:06:48.315Z,15.57
2023-05-05T07:07:54.019Z,15.56
2023-05-05T07:08:58.633Z,15.58
2023-05-05T07:10:03.110Z,15.65
2023-05-05T07:11:07.563Z,15.75
2023-05-05T07:12:13.133Z,15.86
2023-05-05T07:13:17.853Z,15.98
2023-05-05T07:14:24.379Z,15.99
2023-05-05T07:15:30.087Z,16.01
2023-05-05T07:16:35.550Z,16.04
2023-05-05T07:17:40.497Z,16.10
2023-05-05T07:18:45.025Z,16.12
2023-05-05T07:19:49.464Z,16.11
2023-05-05T07:20:53.969Z,16.08
2023-05-05T07:21:58.403Z,16.08
2023-05-05T07:23:02.687Z,16.11
2023-05-05T07:24:08.629Z,16.15
2023-05-05T07:25:12.949Z,16.18
2023-05-05T07:26:17.138Z,16.20
2023-05-05T07:27:21.782Z,16.18
2023-05-05T07:28:26.823Z,16.11
2023-05-05T07:29:32.255Z,16.09
2023-05-05T07:30:36.514Z,16.16
2023-05-05T07:31:41.302Z,16.24
2023-05-05T07:32:46.107Z,16.31
2023-05-05T07:33:51.019Z,16.42
2023-05-05T07:34:55.332Z,16.55
2023-05-05T07:35:59.805Z,16.62
2023-05-05T07:37:04.839Z,16.68
2023-05-05T07:38:11.011Z,16.74
2023-05-05T07:39:15.799Z,16.82
2023-05-05T07:40:20.931Z,16.98
2023-05-05T07:41:25.670Z,17.15
2023-05-05T07:42:30.846Z,17.28
2023-05-05T07:43:39.307Z,17.35
2023-05-05T07:44:44.305Z,17.43
2023-05-05T07:45:48.981Z,17.46
2023-05-05T07:46:53.633Z,17.50
2023-05-05T07:47:58.086Z,17.53
2023-05-05T07:49:02.554Z,17.54
2023-05-05T07:50:09.077Z,17.57
2023-05-05T07:51:13.530Z,17.59
2023-05-05T07:52:17.923Z,17.61
2023-05-05T07:53:22.546Z,17.69
2023-05-05T07:54:27.922Z,17.77
2023-05-05T07:55:32.639Z,17.89
2023-05-05T07:56:37.003Z,18.00
2023-05-05T07:57:41.618Z,18.08
2023-05-05T07:58:45.933Z,18.16
2023-05-05T07:59:50.952Z,18.27
2023-05-05T08:00:55.770Z,18.36
2023-05-05T08:02:00.497Z,18.42
2023-05-05T08:03:05.106Z,18.51
2023-05-05T08:04:10.575Z,18.60
2023-05-05T08:05:15.161Z,18.65
2023-05-05T08:06:25.415Z,18.71
2023-05-05T08:07:30.528Z,18.77
2023-05-05T08:08:35.345Z,18.82
2023-05-05T08:09:42.006Z,18.90
2023-05-05T08:10:47.039Z,19.02
2023-05-05T08:11:51.806Z,19.14
2023-05-05T08:12:56.276Z,19.15
2023-05-05T08:14:00.407Z,19.00
2023-05-05T08:15:06.429Z,18.85
2023-05-05T08:16:12.295Z,18.70
2023-05-05T08:17:17.506Z,18.57
2023-05-05T08:18:21.877Z,18.46
2023-05-05T08:19:29.261Z,18.39
2023-05-05T08:20:35.020Z,18.31
2023-05-05T08:21:40.047Z,18.26
2023-05-05T08:22:47.947Z,18.21
2023-05-05T08:23:52.650Z,18.20
2023-05-05T08:24:56.779Z,18.11
2023-05-05T08:26:01.265Z,18.05
2023-05-05T08:27:05.752Z,18.07
2023-05-05T08:28:09.921Z,18.16
2023-05-05T08:29:14.720Z,18.27
2023-05-05T08:30:21.567Z,18.34
2023-05-05T08:31:26.244Z,18.42
2023-05-05T08:32:31.502Z,18.51
2023-05-05T08:33:35.780Z,18.56
2023-05-05T08:34:39.987Z,18.59
2023-05-05T08:35:44.961Z,18.59
2023-05-05T08:36:51.527Z,18.51
2023-05-05T08:37:58.126Z,18.44
2023-05-05T08:39:05.097Z,18.43
2023-05-05T08:40:11.983Z,18.47
2023-05-05T08:41:18.525Z,18.53
2023-05-05T08:42:36.076Z,18.50
2023-05-05T08:43:44.920Z,18.47
2023-05-05T08:44:49.737Z,18.49
2023-05-05T08:45:56.274Z,18.49
2023-05-05T08:47:00.739Z,18.35
2023-05-05T08:48:06.168Z,18.22
2023-05-05T08:49:14.039Z,18.10
2023-05-05T08:50:19.925Z,18.01
2023-05-05T08:51:28.487Z,17.95
2023-05-05T08:52:39.668Z,17.91
2023-05-05T08:53:47.859Z,17.86
2023-05-05T08:54:56.162Z,17.86
2023-05-05T08:56:01.021Z,17.88
2023-05-05T08:57:10.124Z,17.87
2023-05-05T08:58:16.099Z,17.87
2023-05-05T08:59:25.711Z,17.85
2023-05-05T09:00:30.211Z,17.87
2023-05-05T09:01:36.499Z,17.90
2023-05-05T09:02:45.999Z,17.96
2023-05-05T09:03:52.566Z,18.04
2023-05-05T09:04:58.299Z,18.12
2023-05-05T09:06:02.671Z,18.18
2023-05-05T09:07:07.386Z,18.22
2023-05-05T09:08:12.140Z,18.24
2023-05-05T09:09:19.014Z,18.26
2023-05-05T09:10:24.802Z,18.28
2023-05-05T09:11:29.771Z,18.25
2023-05-05T09:12:34.331Z,18.21
2023-05-05T09:13:38.632Z,18.21
2023-05-05T09:14:43.033Z,18.22
2023-05-05T09:15:47.446Z,18.24
2023-05-05T09:16:51.972Z,18.24
2023-05-05T09:17:58.355Z,18.25
2023-05-05T09:19:04.054Z,18.30
2023-05-05T09:20:10.615Z,18.33
2023-05-05T09:21:22.522Z,18.35
2023-05-05T09:22:36.141Z,18.32
2023-05-05T09:24:07.852Z,18.31
2023-05-05T09:25:14.644Z,18.39
2023-05-05T09:26:18.862Z,18.47
2023-05-05T09:27:23.531Z,18.47
2023-05-05T09:28:38.871Z,18.52
2023-05-05T09:29:50.044Z,18.53
2023-05-05T09:30:54.299Z,18.56
2023-05-05T09:32:09.203Z,18.56
2023-05-05T09:34:16.392Z,18.68
2023-05-05T09:35:22.804Z,18.66
2023-05-05T09:36:42.385Z,18.67
2023-05-05T09:37:47.279Z,18.74
2023-05-05T09:39:04.894Z,18.79
2023-05-05T09:40:11.662Z,18.87
2023-05-05T09:41:17.949Z,18.94
2023-05-05T09:42:22.451Z,18.96
2023-05-05T09:43:27.244Z,18.94
2023-05-05T09:44:35.461Z,18.89
2023-05-05T09:45:39.777Z,18.85
2023-05-05T09:46:51.531Z,18.81
2023-05-05T09:47:59.688Z,18.74
2023-05-05T09:49:16.801Z,18.64
2023-05-05T09:50:22.561Z,18.47
2023-05-05T09:51:30.084Z,18.28
2023-05-05T09:52:35.007Z,18.07
2023-05-05T09:53:42.416Z,17.86
2023-05-05T09:54:53.377Z,17.63
2023-05-05T09:55:59.342Z,17.33
2023-05-05T09:57:03.622Z,17.09
2023-05-05T09:58:23.912Z,16.89
2023-05-05T09:59:28.700Z,16.70
2023-05-05T10:00:39.739Z,16.58
2023-05-05T10:01:44.726Z,16.47
2023-05-05T10:02:50.080Z,16.35
2023-05-05T10:03:55.589Z,16.23
2023-05-05T10:05:12.539Z,16.11
2023-05-05T10:06:17.611Z,16.01
2023-05-05T10:07:27.662Z,15.93
2023-05-05T10:08:34.021Z,15.85
2023-05-05T10:09:38.780Z,15.78
2023-05-05T10:10:48.061Z,15.72
2023-05-05T10:11:52.286Z,15.67
2023-05-05T10:12:58.757Z,15.65
2023-05-05T10:14:07.965Z,15.65
2023-05-05T10:15:18.972Z,15.65
2023-05-05T10:16:27.459Z,15.61
2023-05-05T10:17:38.635Z,15.61
2023-05-05T10:18:48.159Z,15.65
2023-05-05T10:20:01.373Z,15.69
2023-05-05T10:21:09.343Z,15.72
2023-05-05T10:22:18.771Z,15.72
2023-05-05T10:23:28.646Z,15.72
2023-05-05T10:24:44.641Z,15.72
2023-05-05T10:26:02.706Z,15.75
2023-05-05T10:27:15.843Z,15.80
2023-05-05T10:28:35.021Z,15.83
2023-05-05T10:29:48.930Z,15.86
2023-05-05T10:30:57.366Z,15.89
2023-05-05T10:32:30.184Z,15.93
2023-05-05T10:33:49.128Z,15.98
2023-05-05T10:34:59.989Z,16.04
2023-05-05T10:36:08.440Z,16.08
2023-05-05T10:37:16.731Z,16.12
2023-05-05T10:38:28.996Z,16.15
2023-05-05T10:39:39.598Z,16.17
2023-05-05T10:40:49.065Z,16.14
2023-05-05T10:41:55.220Z,16.14
2023-05-05T10:43:01.733Z,16.15
2023-05-05T10:44:11.286Z,16.13
2023-05-05T10:45:17.695Z,16.25
2023-05-05T10:46:24.862Z,16.30
2023-05-05T10:47:33.297Z,16.34
2023-05-05T10:48:46.400Z,16.41
2023-05-05T10:50:00.180Z,16.44
2023-05-05T10:51:38.437Z,16.47
2023-05-05T10:52:59.288Z,16.51
2023-05-05T10:54:14.452Z,16.55
2023-05-05T10:55:28.949Z,16.58
2023-05-05T10:56:41.381Z,16.62
2023-05-05T10:57:52.334Z,16.64
2023-05-05T10:59:00.105Z,16.65
2023-05-05T11:00:09.862Z,16.62
2023-05-05T11:01:31.408Z,16.63
2023-05-05T11:02:38.281Z,16.65
2023-05-05T11:03:45.572Z,16.69
2023-05-05T11:05:15.319Z,16.75
2023-05-05T11:06:21.178Z,16.80
2023-05-05T11:07:27.587Z,16.81
2023-05-05T11:08:36.365Z,16.83
2023-05-05T11:09:57.978Z,16.84
2023-05-05T11:11:06.200Z,16.83
2023-05-05T11:12:13.899Z,16.85
2023-05-05T11:13:23.824Z,16.91
2023-05-05T11:14:30.682Z,17.00
2023-05-05T11:15:38.877Z,17.11
2023-05-05T11:16:48.358Z,17.23
2023-05-05T11:17:57.583Z,17.33
2023-05-05T11:19:37.577Z,17.46
2023-05-05T11:21:16.799Z,17.63
2023-05-05T11:22:24.123Z,17.83
2023-05-05T11:23:31.368Z,17.95
2023-05-05T11:24:39.960Z,18.09
2023-05-05T11:25:53.213Z,18.23
2023-05-05T11:26:59.678Z,18.34
2023-05-05T11:28:10.621Z,18.37
2023-05-05T11:29:17.026Z,18.45
2023-05-05T11:30:23.750Z,18.53
2023-05-05T11:31:31.369Z,18.60
2023-05-05T11:32:37.509Z,18.66
2023-05-05T11:33:43.832Z,18.70
2023-05-05T11:34:53.740Z,18.72
2023-05-05T11:36:05.826Z,18.73
2023-05-05T11:37:13.759Z,18.71
2023-05-05T11:38:23.537Z,18.72
2023-05-05T11:39:40.944Z,18.81
2023-05-05T11:40:48.394Z,18.92
2023-05-05T11:42:17.424Z,19.03
2023-05-05T11:43:24.648Z,19.09
2023-05-05T11:44:34.628Z,19.12
2023-05-05T11:45:41.094Z,19.15
2023-05-05T11:47:17.523Z,19.22
2023-05-05T11:48:29.731Z,19.24
2023-05-05T11:49:36.943Z,19.26
2023-05-05T11:50:43.147Z,19.39
2023-05-05T11:51:59.744Z,19.54
2023-05-05T11:53:07.636Z,19.63
2023-05-05T11:54:20.449Z,19.73
2023-05-05T11:55:27.363Z,19.81
2023-05-05T11:56:33.972Z,19.86
2023-05-05T11:57:39.921Z,19.85
2023-05-05T11:58:49.878Z,19.87
2023-05-05T11:59:58.691Z,19.88
2023-05-05T12:01:10.668Z,19.87
2023-05-05T12:02:22.058Z,19.82
2023-05-05T12:03:34.056Z,19.80
2023-05-05T12:04:42.090Z,19.83
2023-05-05T12:05:49.087Z,19.85
2023-05-05T12:06:57.799Z,19.92
2023-05-05T12:08:03.357Z,20.05
2023-05-05T12:09:14.435Z,20.15
2023-05-05T12:10:25.075Z,20.28
2023-05-05T12:11:30.513Z,20.39
2023-05-05T12:12:36.222Z,20.48
2023-05-05T12:13:41.992Z,20.53
2023-05-05T12:14:47.658Z,20.53
2023-05-05T12:15:52.495Z,20.53
2023-05-05T12:16:57.600Z,20.54
2023-05-05T12:18:03.344Z,20.58
2023-05-05T12:19:13.122Z,20.63
2023-05-05T12:20:17.799Z,20.65
2023-05-05T12:21:21.937Z,20.68
2023-05-05T12:22:26.819Z,20.71
2023-05-05T12:23:38.209Z,20.69
2023-05-05T12:24:42.709Z,20.71
2023-05-05T12:25:47.504Z,20.68
2023-05-05T12:26:52.067Z,20.66
2023-05-05T12:27:56.593Z,20.69
2023-05-05T12:29:03.028Z,20.78
2023-05-05T12:30:18.879Z,20.91
2023-05-05T12:31:23.721Z,21.08
2023-05-05T12:32:29.089Z,21.18
2023-05-05T12:33:39.279Z,21.27
2023-05-05T12:34:44.023Z,21.35
2023-05-05T12:35:48.422Z,21.43
2023-05-05T12:36:53.377Z,21.54
2023-05-05T12:37:58.721Z,21.65
2023-05-05T12:39:05.246Z,21.76
2023-05-05T12:40:30.901Z,21.85
2023-05-05T12:41:37.313Z,22.01
2023-05-05T12:42:42.952Z,22.09
2023-05-05T12:43:54.733Z,22.15
2023-05-05T12:44:59.863Z,22.19
2023-05-05T12:46:06.291Z,22.12
2023-05-05T12:47:11.561Z,22.05
2023-05-05T12:48:23.152Z,22.09
2023-05-05T12:49:27.828Z,22.17
2023-05-05T12:50:32.668Z,22.23
2023-05-05T12:51:37.926Z,22.23
2023-05-05T12:52:44.581Z,22.25
2023-05-05T12:54:02.703Z,22.24
2023-05-05T12:55:09.143Z,22.26
2023-05-05T12:56:34.830Z,22.31
2023-05-05T12:57:39.685Z,22.39
2023-05-05T12:58:49.887Z,22.42
2023-05-05T12:59:54.170Z,22.46
2023-05-05T13:01:11.785Z,22.53
2023-05-05T13:02:17.224Z,22.58
2023-05-05T13:03:21.725Z,22.51
2023-05-05T13:04:28.283Z,22.46
2023-05-05T13:05:33.512Z,22.43
2023-05-05T13:06:38.235Z,22.38
2023-05-05T13:07:52.494Z,22.34
2023-05-05T13:08:58.700Z,22.28
2023-05-05T13:10:10.859Z,22.19
2023-05-05T13:11:16.854Z,22.08
2023-05-05T13:12:23.171Z,22.02
2023-05-05T13:13:31.965Z,21.94
2023-05-05T13:14:36.873Z,21.90
2023-05-05T13:15:41.194Z,21.94
2023-05-05T13:16:45.480Z,22.03
2023-05-05T13:17:50.126Z,22.03
2023-05-05T13:18:54.707Z,22.02
2023-05-05T13:19:58.888Z,22.04
2023-05-05T13:21:03.476Z,22.07
2023-05-05T13:22:10.092Z,22.13
2023-05-05T13:23:14.600Z,22.29
2023-05-05T13:24:28.724Z,22.73
2023-05-05T13:25:43.080Z,23.25
2023-05-05T13:26:47.602Z,23.45
2023-05-05T13:27:52.229Z,23.68
2023-05-05T13:28:56.664Z,23.93
2023-05-05T13:30:00.951Z,24.20
2023-05-05T13:31:05.580Z,24.28
2023-05-05T13:32:09.769Z,24.23
2023-05-05T13:33:13.858Z,24.42
2023-05-05T13:34:17.935Z,24.62
2023-05-05T13:35:22.466Z,24.83
2023-05-05T13:36:27.186Z,25.17
2023-05-05T13:37:31.572Z,25.53
2023-05-05T13:38:38.071Z,25.88
2023-05-05T13:39:42.382Z,26.22
2023-05-05T13:40:46.735Z,26.27
2023-05-05T13:41:51.181Z,26.14
2023-05-05T13:42:57.045Z,26.19
2023-05-05T13:44:02.955Z,26.07
2023-05-05T13:45:08.294Z,25.79
2023-05-05T13:46:20.167Z,25.58
2023-05-05T13:47:25.702Z,25.57
2023-05-05T13:48:31.813Z,25.72
2023-05-05T13:49:36.414Z,25.57
2023-05-05T13:50:40.671Z,25.24
2023-05-05T13:51:47.299Z,24.95
2023-05-05T13:52:52.994Z,24.68
2023-05-05T13:53:57.917Z,24.50
2023-05-05T13:55:02.984Z,24.30
2023-05-05T13:56:07.785Z,24.10
2023-05-05T13:57:12.512Z,23.99
2023-05-05T13:58:18.569Z,23.85
2023-05-05T13:59:25.967Z,23.78
2023-05-05T14:00:33.860Z,23.69
2023-05-05T14:01:40.913Z,23.78
2023-05-05T14:02:50.058Z,23.90
2023-05-05T14:03:57.554Z,24.22
2023-05-05T14:05:05.315Z,24.64
2023-05-05T14:06:12.884Z,24.94
2023-05-05T14:07:19.077Z,25.51
2023-05-05T14:08:25.103Z,25.89
2023-05-05T14:09:31.572Z,26.21
2023-05-05T14:10:38.124Z,25.89
2023-05-05T14:11:44.381Z,25.65
2023-05-05T14:12:50.248Z,25.90
2023-05-05T14:13:56.056Z,26.25
2023-05-05T14:15:03.164Z,26.70
2023-05-05T14:16:09.720Z,27.15
2023-05-05T14:17:16.473Z,27.53
2023-05-05T14:18:22.960Z,27.48
2023-05-05T14:19:29.194Z,27.19
2023-05-05T14:20:36.379Z,27.32
2023-05-05T14:21:42.315Z,26.92
2023-05-05T14:22:49.393Z,26.33
2023-05-05T14:23:55.661Z,25.88
2023-05-05T14:25:01.589Z,25.51
2023-05-05T14:26:09.551Z,25.22
2023-05-05T14:27:17.577Z,24.92
2023-05-05T14:28:23.634Z,24.65
2023-05-05T14:29:31.678Z,24.38
2023-05-05T14:30:37.766Z,24.15
2023-05-05T14:31:43.917Z,23.94
2023-05-05T14:32:50.707Z,23.75
2023-05-05T14:33:56.961Z,23.52
2023-05-05T14:35:04.579Z,23.28
2023-05-05T14:36:11.515Z,23.02
2023-05-05T14:37:18.381Z,22.80
2023-05-05T14:38:24.400Z,22.60
2023-05-05T14:39:31.076Z,22.41
2023-05-05T14:40:38.148Z,22.16
2023-05-05T14:41:43.915Z,22.15
2023-05-05T14:42:52.416Z,21.93
2023-05-05T14:44:00.177Z,21.65
2023-05-05T14:45:11.508Z,21.47
2023-05-05T14:46:19.234Z,21.29